createdAt,value
2022-12-28T00:00:12.735Z,8.32
2022-12-28T00:01:34.131Z,9.41
2022-12-28T00:02:56.361Z,8.56
2022-12-28T00:04:17.425Z,8.04
2022-12-28T00:05:38.931Z,8.65
2022-12-28T00:07:00.717Z,8.12
2022-12-28T00:08:21.892Z,7.68
2022-12-28T00:09:42.786Z,9.13
2022-12-28T00:11:06.374Z,7.92
2022-12-28T00:12:29.135Z,8.16
2022-12-28T00:13:50.069Z,7.08
2022-12-28T00:15:11.115Z,9.54
2022-12-28T00:16:35.589Z,9.11
2022-12-28T00:17:57.137Z,8.36
2022-12-28T00:19:18.698Z,8.24
2022-12-28T00:20:40.455Z,7.26
2022-12-28T00:22:01.669Z,8.58
2022-12-28T00:23:23.046Z,9.55
2022-12-28T00:24:44.285Z,9.09
2022-12-28T00:26:09.894Z,7.18
2022-12-28T00:27:31.330Z,7.96
2022-12-28T00:28:55.555Z,11.11
2022-12-28T00:30:15.960Z,8.84
2022-12-28T00:31:37.145Z,8.19
2022-12-28T00:32:58.584Z,9.11
2022-12-28T00:34:19.720Z,8.36
2022-12-28T00:35:40.917Z,9.23
2022-12-28T00:37:12.376Z,6.46
2022-12-28T00:38:25.283Z,7.92
2022-12-28T00:39:47.192Z,7.88
2022-12-28T00:41:08.773Z,7.16
2022-12-28T00:42:29.763Z,6.44
2022-12-28T00:43:51.198Z,8.54
2022-12-28T00:45:12.164Z,7.29
2022-12-28T00:46:34.234Z,8.36
2022-12-28T00:47:55.463Z,7.24
2022-12-28T00:49:16.896Z,7.63
2022-12-28T00:50:38.785Z,7.33
2022-12-28T00:51:59.743Z,7.77
2022-12-28T00:53:21.060Z,8.43
2022-12-28T00:54:42.103Z,7.62
2022-12-28T00:56:13.505Z,8.12
2022-12-28T00:57:34.605Z,7.59
2022-12-28T00:58:56.670Z,8.84
2022-12-28T01:00:18.502Z,7.93
2022-12-28T01:01:45.832Z,9.21
2022-12-28T01:03:07.143Z,7.66
2022-12-28T01:04:28.307Z,6.95
2022-12-28T01:05:49.316Z,8.09
2022-12-28T01:07:10.186Z,8.73
2022-12-28T01:08:31.624Z,7.95
2022-12-28T01:09:52.875Z,8.54
2022-12-28T01:11:17.295Z,8.22
2022-12-28T01:12:38.637Z,7.34
2022-12-28T01:14:00.383Z,7.18
2022-12-28T01:15:21.299Z,7.61
2022-12-28T01:16:42.533Z,8.87
2022-12-28T01:18:03.894Z,7.87
2022-12-28T01:19:24.970Z,8.99
2022-12-28T01:20:46.081Z,8.94
2022-12-28T01:22:07.129Z,9.94
2022-12-28T01:23:28.561Z,7.49
2022-12-28T01:24:49.630Z,7.79
2022-12-28T01:26:11.239Z,8.12
2022-12-28T01:27:32.584Z,9.67
2022-12-28T01:28:54.067Z,8.05
2022-12-28T01:30:15.741Z,9.18
2022-12-28T01:31:36.823Z,7.83
2022-12-28T01:32:58.787Z,8.87
2022-12-28T01:34:20.003Z,8.17
2022-12-28T01:35:40.961Z,8.50
2022-12-28T01:37:02.370Z,7.12
2022-12-28T01:38:23.533Z,9.11
2022-12-28T01:39:44.505Z,8.55
2022-12-28T01:41:09.479Z,7.09
2022-12-28T01:42:30.735Z,7.88
2022-12-28T01:43:56.169Z,8.75
2022-12-28T01:45:21.794Z,8.56
2022-12-28T01:46:47.535Z,9.47
2022-12-28T01:48:18.245Z,8.78
2022-12-28T01:50:00.684Z,7.59
2022-12-28T01:51:21.943Z,7.87
2022-12-28T01:52:49.104Z,9.69
2022-12-28T01:54:10.373Z,7.99
2022-12-28T01:55:33.840Z,6.79
2022-12-28T01:56:55.047Z,7.41
2022-12-28T01:58:21.426Z,7.83
2022-12-28T01:59:45.317Z,8.70
2022-12-28T02:01:06.858Z,8.48
2022-12-28T02:02:28.684Z,8.21
2022-12-28T02:03:50.070Z,10.07
2022-12-28T02:05:11.003Z,7.85
2022-12-28T02:06:33.054Z,8.18
2022-12-28T02:08:09.337Z,9.03
2022-12-28T02:09:37.041Z,8.29
2022-12-28T02:10:58.188Z,8.36
2022-12-28T02:12:19.188Z,7.79
2022-12-28T02:13:41.754Z,8.43
2022-12-28T02:15:03.353Z,9.34
2022-12-28T02:16:24.442Z,9.07
2022-12-28T02:17:45.745Z,8.29
2022-12-28T02:19:06.689Z,8.92
2022-12-28T02:22:15.002Z,5.99
2022-12-28T02:26:51.131Z,9.84
2022-12-28T02:30:01.845Z,6.11
2022-12-28T02:31:36.319Z,9.07
2022-12-28T02:34:40.975Z,7.45
2022-12-28T02:37:22.584Z,9.19
2022-12-28T02:38:49.002Z,10.18
2022-12-28T02:40:22.139Z,8.39
2022-12-28T02:41:43.252Z,8.54
2022-12-28T02:43:04.730Z,7.89
2022-12-28T02:44:25.728Z,7.84
2022-12-28T02:45:47.309Z,7.77
2022-12-28T02:47:12.759Z,10.13
2022-12-28T02:48:43.998Z,9.11
2022-12-28T02:50:06.380Z,10.46
2022-12-28T02:51:49.074Z,9.36
2022-12-28T02:53:47.159Z,8.91
2022-12-28T02:55:37.587Z,7.28
2022-12-28T02:57:01.617Z,6.92
2022-12-28T02:58:35.414Z,7.63
2022-12-28T03:01:20.484Z,9.09
2022-12-28T03:03:00.731Z,7.71
2022-12-28T03:04:28.730Z,8.22
2022-12-28T03:06:19.807Z,7.32
2022-12-28T03:07:53.293Z,7.89
2022-12-28T03:11:07.906Z,10.01
2022-12-28T03:15:10.111Z,8.61
2022-12-28T03:16:39.127Z,6.84
2022-12-28T03:18:10.127Z,6.27
2022-12-28T03:19:37.149Z,8.15
2022-12-28T03:21:01.218Z,8.41
2022-12-28T03:22:22.934Z,7.68
2022-12-28T03:23:44.335Z,8.32
2022-12-28T03:25:09.549Z,6.95
2022-12-28T03:26:31.713Z,8.17
2022-12-28T03:27:52.783Z,6.83
2022-12-28T03:29:14.184Z,6.41
2022-12-28T03:30:36.184Z,6.95
2022-12-28T03:31:57.275Z,7.38
2022-12-28T03:33:18.820Z,8.43
2022-12-28T03:34:39.959Z,7.33
2022-12-28T03:36:07.635Z,8.03
2022-12-28T03:37:34.192Z,7.77
2022-12-28T03:39:05.676Z,7.50
2022-12-28T03:40:33.645Z,7.86
2022-12-28T03:41:57.172Z,8.38
2022-12-28T03:44:33.378Z,10.27
2022-12-28T03:47:23.526Z,7.13
2022-12-28T03:48:44.957Z,7.03
2022-12-28T03:50:07.208Z,6.68
2022-12-28T03:51:29.501Z,6.28
2022-12-28T03:52:51.082Z,6.72
2022-12-28T03:54:14.692Z,7.48
2022-12-28T03:55:36.291Z,6.84
2022-12-28T03:56:57.732Z,8.34
2022-12-28T03:58:19.248Z,7.89
2022-12-28T03:59:40.668Z,10.65
2022-12-28T04:01:02.445Z,8.12
2022-12-28T04:02:23.734Z,8.99
2022-12-28T04:03:45.271Z,8.56
2022-12-28T04:05:07.427Z,8.65
2022-12-28T04:06:28.796Z,9.81
2022-12-28T04:07:50.427Z,9.71
2022-12-28T04:09:11.774Z,8.04
2022-12-28T04:10:33.060Z,9.06
2022-12-28T04:11:54.461Z,8.42
2022-12-28T04:13:15.669Z,9.21
2022-12-28T04:14:37.122Z,26.07
2022-12-28T04:16:01.283Z,104.87
2022-12-28T04:17:22.726Z,50.29
2022-12-28T04:18:44.050Z,15.86
2022-12-28T04:20:06.203Z,8.76
2022-12-28T04:21:27.967Z,5.77
2022-12-28T04:22:49.262Z,7.04
2022-12-28T04:24:10.735Z,8.21
2022-12-28T04:25:31.970Z,7.52
2022-12-28T04:26:52.831Z,8.37
2022-12-28T04:28:14.119Z,9.61
2022-12-28T04:29:35.160Z,9.38
2022-12-28T04:30:56.547Z,8.02
2022-12-28T04:32:17.834Z,7.62
2022-12-28T04:33:38.976Z,9.25
2022-12-28T04:35:00.288Z,8.54
2022-12-28T04:36:21.322Z,7.73
2022-12-28T04:37:42.663Z,8.50
2022-12-28T04:39:03.598Z,8.94
2022-12-28T04:40:24.706Z,7.29
2022-12-28T04:41:45.989Z,8.76
2022-12-28T04:43:07.546Z,7.77
2022-12-28T04:44:28.579Z,9.71
2022-12-28T04:47:07.353Z,5.90
2022-12-28T04:48:28.720Z,6.33
2022-12-28T04:49:50.329Z,6.85
2022-12-28T04:51:15.778Z,7.37
2022-12-28T04:52:36.981Z,8.17
2022-12-28T04:53:59.057Z,10.28
2022-12-28T04:55:32.903Z,8.36
2022-12-28T04:56:43.544Z,8.94
2022-12-28T04:58:04.721Z,8.79
2022-12-28T04:59:26.001Z,8.21
2022-12-28T05:00:47.341Z,9.39
2022-12-28T05:02:08.779Z,8.02
2022-12-28T05:03:30.050Z,8.71
2022-12-28T05:04:51.276Z,9.57
2022-12-28T05:06:18.232Z,9.16
2022-12-28T05:07:39.733Z,9.62
2022-12-28T05:09:00.693Z,8.64
2022-12-28T05:10:22.518Z,8.99
2022-12-28T05:11:44.048Z,9.08
2022-12-28T05:13:05.536Z,9.05
2022-12-28T05:14:26.785Z,7.27
2022-12-28T05:15:48.246Z,7.01
2022-12-28T05:17:10.202Z,8.29
2022-12-28T05:18:31.271Z,8.23
2022-12-28T05:19:52.436Z,6.31
2022-12-28T05:21:15.397Z,9.99
2022-12-28T05:22:40.885Z,8.91
2022-12-28T05:23:59.695Z,6.70
2022-12-28T05:25:20.728Z,8.27
2022-12-28T05:26:42.362Z,7.64
2022-12-28T05:28:04.031Z,12.92
2022-12-28T05:29:24.990Z,11.41
2022-12-28T05:30:47.073Z,10.45
2022-12-28T05:32:08.270Z,10.04
2022-12-28T05:33:29.664Z,11.36
2022-12-28T05:34:50.661Z,7.22
2022-12-28T05:37:26.283Z,11.28
2022-12-28T05:38:47.854Z,10.62
2022-12-28T05:40:10.165Z,10.04
2022-12-28T05:41:31.602Z,10.22
2022-12-28T05:42:53.339Z,8.08
2022-12-28T05:44:14.677Z,7.53
2022-12-28T05:45:36.299Z,8.58
2022-12-28T05:46:57.992Z,8.39
2022-12-28T05:48:19.366Z,10.42
2022-12-28T05:49:40.741Z,8.14
2022-12-28T05:51:05.204Z,8.23
2022-12-28T05:52:26.112Z,7.69
2022-12-28T05:53:47.300Z,6.92
2022-12-28T05:55:09.082Z,8.80
2022-12-28T05:56:30.160Z,9.72
2022-12-28T05:57:53.988Z,7.84
2022-12-28T05:59:15.049Z,8.32
2022-12-28T06:00:36.731Z,10.28
2022-12-28T06:01:58.036Z,7.73
2022-12-28T06:03:19.455Z,8.82
2022-12-28T06:04:41.063Z,9.84
2022-12-28T06:06:10.281Z,9.07
2022-12-28T06:07:31.340Z,10.31
2022-12-28T06:08:52.767Z,11.75
2022-12-28T06:10:13.811Z,9.63
2022-12-28T06:11:34.809Z,8.56
2022-12-28T06:12:55.951Z,9.57
2022-12-28T06:14:18.063Z,9.56
2022-12-28T06:15:39.146Z,8.65
2022-12-28T06:17:00.714Z,8.62
2022-12-28T06:18:23.599Z,6.18
2022-12-28T06:19:47.180Z,8.52
2022-12-28T06:21:13.489Z,9.04
2022-12-28T06:22:38.179Z,7.61
2022-12-28T06:23:59.649Z,8.50
2022-12-28T06:25:21.421Z,9.83
2022-12-28T06:26:42.906Z,8.23
2022-12-28T06:28:03.991Z,7.76
2022-12-28T06:29:25.574Z,8.21
2022-12-28T06:30:52.342Z,7.76
2022-12-28T06:32:10.191Z,8.39
2022-12-28T06:33:31.918Z,9.62
2022-12-28T06:34:53.246Z,8.91
2022-12-28T06:36:20.658Z,8.29
2022-12-28T06:37:42.387Z,11.29
2022-12-28T06:39:05.058Z,11.16
2022-12-28T06:40:33.455Z,11.23
2022-12-28T06:41:49.964Z,8.95
2022-12-28T06:43:11.373Z,9.99
2022-12-28T06:44:32.854Z,8.37
2022-12-28T06:45:55.976Z,8.44
2022-12-28T06:47:17.816Z,9.52
2022-12-28T06:48:39.652Z,10.59
2022-12-28T06:50:00.640Z,10.39
2022-12-28T06:51:26.698Z,7.96
2022-12-28T06:52:48.177Z,9.83
2022-12-28T06:54:09.225Z,8.13
2022-12-28T06:55:30.703Z,10.16
2022-12-28T06:56:51.727Z,9.01
2022-12-28T06:58:12.773Z,9.19
2022-12-28T06:59:39.738Z,7.11
2022-12-28T07:01:21.742Z,9.57
2022-12-28T07:02:44.345Z,10.53
2022-12-28T07:04:06.480Z,14.47
2022-12-28T07:05:27.811Z,9.27
2022-12-28T07:06:49.235Z,11.64
2022-12-28T07:08:12.787Z,9.77
2022-12-28T07:09:33.584Z,10.01
2022-12-28T07:10:55.417Z,7.94
2022-12-28T07:12:16.474Z,9.21
2022-12-28T07:13:38.285Z,9.53
2022-12-28T07:14:59.623Z,9.81
2022-12-28T07:16:22.354Z,8.68
2022-12-28T07:17:43.711Z,6.13
2022-12-28T07:19:05.409Z,8.41
2022-12-28T07:20:28.161Z,8.78
2022-12-28T07:21:49.327Z,8.42
2022-12-28T07:23:10.618Z,9.62
2022-12-28T07:24:31.812Z,7.97
2022-12-28T07:25:53.456Z,8.06
2022-12-28T07:27:14.664Z,9.39
2022-12-28T07:28:38.215Z,8.42
2022-12-28T07:29:59.515Z,10.44
2022-12-28T07:32:38.096Z,8.23
2022-12-28T07:33:59.626Z,11.66
2022-12-28T07:35:21.464Z,10.44
2022-12-28T07:36:43.187Z,10.51
2022-12-28T07:38:04.297Z,10.87
2022-12-28T07:39:25.863Z,11.74
2022-12-28T07:40:47.502Z,14.69
2022-12-28T07:42:09.173Z,12.28
2022-12-28T07:44:53.145Z,9.51
2022-12-28T07:47:26.903Z,10.32
2022-12-28T07:48:48.460Z,11.06
2022-12-28T07:50:10.214Z,10.06
2022-12-28T07:51:33.413Z,9.69
2022-12-28T07:52:54.884Z,9.84
2022-12-28T07:54:16.521Z,12.26
2022-12-28T07:55:41.096Z,13.43
2022-12-28T07:57:02.787Z,10.98
2022-12-28T07:58:24.481Z,8.51
2022-12-28T07:59:45.828Z,10.30
2022-12-28T08:01:09.870Z,11.29
2022-12-28T08:02:31.432Z,11.37
2022-12-28T08:03:57.402Z,10.88
2022-12-28T08:05:19.090Z,10.52
2022-12-28T08:06:43.909Z,9.23
2022-12-28T08:08:05.843Z,9.94
2022-12-28T08:09:27.025Z,11.99
2022-12-28T08:10:51.028Z,11.39
2022-12-28T08:12:12.222Z,10.71
2022-12-28T08:13:36.388Z,10.17
2022-12-28T08:14:57.390Z,9.09
2022-12-28T08:16:21.225Z,10.82
2022-12-28T08:17:42.386Z,9.59
2022-12-28T08:19:05.550Z,9.78
2022-12-28T08:20:27.888Z,8.61
2022-12-28T08:21:49.003Z,9.84
2022-12-28T08:23:10.620Z,12.23
2022-12-28T08:24:33.685Z,9.56
2022-12-28T08:27:21.730Z,14.33
2022-12-28T08:28:43.716Z,9.54
2022-12-28T08:30:06.811Z,9.86
2022-12-28T08:32:40.677Z,8.39
2022-12-28T08:34:02.809Z,23.39
2022-12-28T08:35:24.068Z,16.77
2022-12-28T08:36:45.559Z,8.42
2022-12-28T08:38:08.231Z,12.13
2022-12-28T08:39:29.556Z,8.65
2022-12-28T08:40:57.506Z,8.13
2022-12-28T08:42:19.804Z,10.46
2022-12-28T08:43:41.106Z,10.11
2022-12-28T08:45:02.828Z,9.07
2022-12-28T08:46:28.457Z,10.03
2022-12-28T08:47:50.445Z,9.20
2022-12-28T08:49:12.611Z,12.37
2022-12-28T08:50:34.038Z,10.58
2022-12-28T08:51:55.242Z,10.27
2022-12-28T08:53:16.728Z,11.74
2022-12-28T08:54:38.422Z,9.89
2022-12-28T08:57:16.072Z,11.28
2022-12-28T08:58:38.337Z,9.24
2022-12-28T09:00:04.163Z,8.74
2022-12-28T09:01:27.385Z,12.87
2022-12-28T09:02:49.279Z,10.76
2022-12-28T09:04:15.482Z,9.92
2022-12-28T09:05:39.631Z,11.34
2022-12-28T09:07:00.832Z,10.32
2022-12-28T09:08:23.426Z,9.40
2022-12-28T09:09:45.394Z,10.12
2022-12-28T09:11:09.285Z,9.87
2022-12-28T09:12:30.374Z,9.54
2022-12-28T09:13:51.564Z,8.98
2022-12-28T09:15:14.073Z,11.01
2022-12-28T09:16:37.529Z,8.47
2022-12-28T09:17:59.054Z,11.28
2022-12-28T09:19:20.333Z,9.67
2022-12-28T09:20:47.542Z,9.93
2022-12-28T09:22:06.935Z,9.04
2022-12-28T09:24:48.926Z,8.60
2022-12-28T09:26:11.912Z,8.64
2022-12-28T09:27:33.288Z,12.93
2022-12-28T09:28:56.254Z,8.90
2022-12-28T09:30:21.914Z,9.13
2022-12-28T09:31:43.245Z,12.97
2022-12-28T09:33:04.792Z,8.14
2022-12-28T09:34:41.172Z,8.38
2022-12-28T09:37:10.577Z,8.36
2022-12-28T09:38:32.145Z,6.88
2022-12-28T09:39:57.951Z,10.61
2022-12-28T09:41:35.242Z,7.31
2022-12-28T09:42:56.522Z,7.64
2022-12-28T09:44:47.236Z,6.88
2022-12-28T09:46:10.485Z,6.64
2022-12-28T09:47:46.735Z,6.57
2022-12-28T09:49:11.923Z,8.19
2022-12-28T09:50:34.034Z,6.94
2022-12-28T09:53:28.072Z,6.69
2022-12-28T09:54:49.825Z,7.28
2022-12-28T09:57:38.551Z,7.26
2022-12-28T09:59:01.307Z,12.89
2022-12-28T10:00:29.513Z,10.42
2022-12-28T10:01:58.491Z,7.91
2022-12-28T10:03:23.161Z,7.01
2022-12-28T10:04:49.388Z,8.51
2022-12-28T10:07:40.245Z,7.01
2022-12-28T10:09:03.686Z,10.29
2022-12-28T10:10:25.507Z,7.43
2022-12-28T10:11:46.999Z,9.00
2022-12-28T10:14:32.693Z,9.43
2022-12-28T10:15:54.209Z,6.46
2022-12-28T10:17:17.196Z,8.39
2022-12-28T10:18:39.613Z,13.97
2022-12-28T10:20:01.283Z,6.62
2022-12-28T10:21:28.430Z,7.08
2022-12-28T10:22:50.292Z,7.11
2022-12-28T10:24:30.741Z,6.54
2022-12-28T10:25:35.152Z,6.41
2022-12-28T10:27:02.231Z,7.16
2022-12-28T10:28:24.922Z,6.33
2022-12-28T10:29:46.266Z,7.17
2022-12-28T10:31:12.433Z,6.78
2022-12-28T10:32:56.704Z,7.38
2022-12-28T10:34:19.152Z,8.92
2022-12-28T10:35:41.283Z,8.23
2022-12-28T10:38:33.785Z,7.11
2022-12-28T10:41:14.347Z,7.36
2022-12-28T10:42:40.922Z,7.73
2022-12-28T10:44:38.960Z,6.99
2022-12-28T10:45:49.052Z,6.53
2022-12-28T10:47:18.628Z,6.31
2022-12-28T10:48:41.689Z,7.74
2022-12-28T10:50:36.629Z,7.85
2022-12-28T10:51:28.920Z,9.23
2022-12-28T10:52:55.800Z,6.30
2022-12-28T11:09:15.826Z,9.22
2022-12-28T11:11:56.734Z,8.21
2022-12-28T11:13:21.933Z,6.14
2022-12-28T11:14:45.632Z,7.85
2022-12-28T11:16:09.378Z,5.70
2022-12-28T11:17:33.718Z,6.08
2022-12-28T11:18:55.360Z,9.09
2022-12-28T11:20:19.491Z,5.65
2022-12-28T11:21:41.400Z,6.91
2022-12-28T11:23:07.277Z,7.91
2022-12-28T11:24:28.226Z,6.50
2022-12-28T11:25:50.187Z,7.72
2022-12-28T11:27:16.705Z,9.25
2022-12-28T11:28:40.144Z,7.05
2022-12-28T11:30:02.412Z,5.38
2022-12-28T11:31:33.046Z,6.64
2022-12-28T11:32:56.647Z,7.09
2022-12-28T11:35:34.221Z,6.23
2022-12-28T11:36:56.293Z,5.68
2022-12-28T11:39:56.549Z,5.95
2022-12-28T11:41:33.707Z,5.80
2022-12-28T11:42:56.325Z,11.19
2022-12-28T11:44:20.308Z,9.15
2022-12-28T11:45:51.944Z,6.67
2022-12-28T11:47:27.945Z,5.43
2022-12-28T11:48:48.364Z,5.37
2022-12-28T11:50:34.504Z,5.48
2022-12-28T11:53:38.650Z,5.17
2022-12-28T11:56:22.317Z,5.84
2022-12-28T11:57:43.849Z,5.58
2022-12-28T11:59:07.795Z,6.61
2022-12-28T12:00:42.560Z,7.12
2022-12-28T12:02:07.950Z,7.54
2022-12-28T12:03:58.795Z,5.36
2022-12-28T12:06:52.093Z,7.42
2022-12-28T12:08:17.166Z,9.09
2022-12-28T12:09:41.283Z,5.61
2022-12-28T12:12:22.651Z,7.66
2022-12-28T12:13:44.321Z,6.31
2022-12-28T12:15:12.540Z,7.15
2022-12-28T12:16:37.694Z,7.17
2022-12-28T12:18:03.783Z,7.11
2022-12-28T12:19:29.451Z,7.83
2022-12-28T12:20:59.239Z,7.29
2022-12-28T12:22:33.881Z,7.01
2022-12-28T12:23:57.386Z,7.06
2022-12-28T12:25:24.430Z,6.99
2022-12-28T12:28:17.805Z,5.43
2022-12-28T12:29:40.764Z,7.31
2022-12-28T12:31:07.293Z,5.64
2022-12-28T12:33:58.004Z,6.83
2022-12-28T12:35:23.739Z,5.78
2022-12-28T12:37:01.467Z,4.81
2022-12-28T12:40:37.930Z,4.49
2022-12-28T12:42:17.981Z,5.46
2022-12-28T12:44:02.310Z,5.79
2022-12-28T12:45:36.903Z,5.88
2022-12-28T12:47:19.505Z,6.06
2022-12-28T12:49:03.598Z,5.15
2022-12-28T12:52:00.735Z,4.72
2022-12-28T12:53:49.193Z,7.49
2022-12-28T12:55:19.569Z,5.64
2022-12-28T12:58:29.846Z,8.47
2022-12-28T12:59:58.708Z,6.17
2022-12-28T13:01:33.184Z,12.31
2022-12-28T13:03:26.434Z,7.17
2022-12-28T13:04:48.959Z,8.09
2022-12-28T13:07:58.499Z,6.99
2022-12-28T13:11:03.846Z,7.49
2022-12-28T13:12:26.305Z,6.48
2022-12-28T13:14:00.835Z,7.01
2022-12-28T13:15:24.237Z,10.72
2022-12-28T13:16:52.216Z,8.60
2022-12-28T13:20:17.999Z,7.23
2022-12-28T13:23:01.832Z,7.99
2022-12-28T13:24:30.905Z,15.34
2022-12-28T13:25:55.236Z,7.20
2022-12-28T13:27:18.204Z,7.10
2022-12-28T13:28:51.608Z,7.69
2022-12-28T13:30:18.566Z,9.76
2022-12-28T13:31:40.089Z,8.29
2022-12-28T13:33:01.503Z,7.81
2022-12-28T13:34:28.793Z,10.73
2022-12-28T13:35:51.262Z,11.36
2022-12-28T13:38:36.157Z,12.36
2022-12-28T13:41:34.254Z,11.09
2022-12-28T13:43:31.006Z,9.23
2022-12-28T13:46:11.353Z,10.31
2022-12-28T13:48:51.506Z,11.23
2022-12-28T13:50:22.193Z,7.28
2022-12-28T13:51:47.155Z,11.01
2022-12-28T13:53:15.349Z,10.91
2022-12-28T13:54:37.641Z,12.74
2022-12-28T13:56:01.035Z,12.38
2022-12-28T13:58:49.761Z,14.31
2022-12-28T14:00:12.563Z,11.74
2022-12-28T14:01:35.189Z,9.92
2022-12-28T14:02:56.821Z,12.01
2022-12-28T14:05:34.824Z,9.19
2022-12-28T14:06:58.482Z,18.67
2022-12-28T14:09:40.774Z,13.62
2022-12-28T14:11:02.417Z,16.72
2022-12-28T14:12:23.780Z,16.72
2022-12-28T14:13:45.240Z,20.19
2022-12-28T14:15:08.411Z,17.41
2022-12-28T14:16:29.687Z,13.76
2022-12-28T14:17:54.145Z,19.32
2022-12-28T14:19:15.551Z,16.84
2022-12-28T14:22:01.349Z,14.26
2022-12-28T14:23:27.319Z,19.56
2022-12-28T14:25:09.501Z,21.27
2022-12-28T14:26:31.185Z,23.26
2022-12-28T14:27:57.488Z,18.78
2022-12-28T14:29:21.887Z,21.43
2022-12-28T14:30:46.909Z,19.32
2022-12-28T14:32:14.694Z,18.01
2022-12-28T14:34:56.675Z,18.18
2022-12-28T14:36:20.750Z,18.57
2022-12-28T14:37:41.962Z,13.36
2022-12-28T14:40:34.030Z,14.35
2022-12-28T14:41:55.311Z,13.79
2022-12-28T14:43:19.217Z,16.27
2022-12-28T14:44:42.082Z,15.28
2022-12-28T14:46:37.826Z,18.28
2022-12-28T14:47:59.075Z,12.41
2022-12-28T14:49:32.246Z,15.53
2022-12-28T14:50:59.933Z,18.61
2022-12-28T14:52:32.644Z,16.47
2022-12-28T14:58:15.999Z,17.15
2022-12-28T14:59:39.154Z,14.72
2022-12-28T15:01:02.674Z,19.38
2022-12-28T15:04:37.769Z,14.83
2022-12-28T15:05:59.324Z,17.54
2022-12-28T15:07:20.549Z,16.34
2022-12-28T15:08:41.811Z,17.34
2022-12-28T15:10:03.661Z,34.08
2022-12-28T15:11:26.439Z,20.30
2022-12-28T15:12:47.786Z,15.97
2022-12-28T15:14:11.039Z,16.58
2022-12-28T15:16:53.652Z,21.68
2022-12-28T15:18:14.933Z,18.23
2022-12-28T15:19:36.288Z,15.96
2022-12-28T15:22:10.500Z,17.07
2022-12-28T15:23:33.765Z,16.42
2022-12-28T15:24:55.319Z,17.52
2022-12-28T15:26:17.172Z,18.13
2022-12-28T15:27:38.372Z,15.09
2022-12-28T15:29:04.528Z,14.68
2022-12-28T15:30:29.206Z,15.64
2022-12-28T15:31:49.998Z,16.23
2022-12-28T15:33:11.581Z,14.53
2022-12-28T15:34:33.549Z,15.97
2022-12-28T15:36:12.125Z,18.29
2022-12-28T15:37:30.903Z,12.40
2022-12-28T15:38:54.812Z,13.62
2022-12-28T15:40:16.598Z,15.84
2022-12-28T15:41:37.759Z,13.61
2022-12-28T15:42:59.260Z,13.44
2022-12-28T15:44:20.554Z,12.46
2022-12-28T15:45:41.996Z,14.46
2022-12-28T15:47:03.953Z,15.44
2022-12-28T15:48:29.083Z,19.33
2022-12-28T15:49:50.488Z,20.72
2022-12-28T15:51:12.996Z,21.24
2022-12-28T15:52:34.348Z,15.56
2022-12-28T15:53:55.957Z,17.10
2022-12-28T15:55:17.815Z,20.06
2022-12-28T15:56:39.828Z,21.41
2022-12-28T15:58:01.163Z,31.09
2022-12-28T15:59:22.662Z,25.87
2022-12-28T16:00:47.648Z,20.69
2022-12-28T16:02:10.522Z,34.97
2022-12-28T16:03:31.916Z,21.99
2022-12-28T16:04:53.984Z,24.88
2022-12-28T16:06:16.879Z,23.21
2022-12-28T16:07:38.165Z,27.69
2022-12-28T16:09:00.266Z,25.89
2022-12-28T16:10:21.569Z,25.27
2022-12-28T16:11:43.395Z,23.55
2022-12-28T16:13:05.151Z,22.00
2022-12-28T16:14:26.820Z,17.32
2022-12-28T16:15:50.590Z,12.61
2022-12-28T16:17:13.993Z,13.37
2022-12-28T16:18:35.651Z,11.64
2022-12-28T16:19:56.774Z,9.91
2022-12-28T16:21:18.321Z,10.88
2022-12-28T16:22:39.957Z,10.46
2022-12-28T16:24:01.519Z,9.53
2022-12-28T16:25:22.678Z,11.76
2022-12-28T16:26:44.218Z,16.94
2022-12-28T16:28:05.524Z,17.04
2022-12-28T16:29:26.962Z,12.94
2022-12-28T16:30:48.461Z,11.97
2022-12-28T16:32:10.051Z,12.79
2022-12-28T16:33:31.425Z,12.25
2022-12-28T16:34:53.654Z,11.67
2022-12-28T16:36:15.111Z,15.33
2022-12-28T16:37:36.469Z,13.91
2022-12-28T16:38:58.264Z,12.62
2022-12-28T16:40:19.576Z,13.26
2022-12-28T16:41:41.194Z,11.19
2022-12-28T16:43:07.438Z,12.99
2022-12-28T16:44:28.989Z,13.10
2022-12-28T16:45:52.836Z,13.86
2022-12-28T16:47:14.090Z,11.43
2022-12-28T16:48:36.479Z,10.83
2022-12-28T16:49:57.758Z,12.27
2022-12-28T16:51:19.102Z,10.29
2022-12-28T16:52:40.420Z,13.11
2022-12-28T16:54:01.828Z,14.52
2022-12-28T16:55:23.367Z,14.29
2022-12-28T16:56:47.565Z,16.24
2022-12-28T16:58:08.956Z,18.94
2022-12-28T16:59:30.415Z,14.23
2022-12-28T17:00:52.184Z,12.98
2022-12-28T17:02:13.648Z,15.79
2022-12-28T17:03:37.272Z,15.42
2022-12-28T17:04:58.587Z,12.41
2022-12-28T17:06:20.350Z,13.22
2022-12-28T17:07:41.603Z,16.53
2022-12-28T17:09:03.274Z,15.42
2022-12-28T17:10:24.832Z,14.06
2022-12-28T17:11:47.091Z,15.97
2022-12-28T17:13:09.236Z,12.03
2022-12-28T17:14:37.394Z,14.08
2022-12-28T17:15:53.451Z,12.17
2022-12-28T17:17:14.591Z,13.23
2022-12-28T17:18:36.205Z,13.49
2022-12-28T17:19:57.842Z,14.30
2022-12-28T17:21:19.355Z,13.51
2022-12-28T17:22:40.760Z,16.48
2022-12-28T17:24:02.652Z,15.27
2022-12-28T17:25:24.232Z,13.10
2022-12-28T17:26:46.593Z,13.58
2022-12-28T17:28:08.356Z,15.23
2022-12-28T17:29:31.403Z,14.55
2022-12-28T17:32:18.434Z,13.12
2022-12-28T17:33:41.849Z,13.96
2022-12-28T17:35:04.842Z,14.28
2022-12-28T17:36:26.985Z,12.85
2022-12-28T17:37:49.270Z,10.71
2022-12-28T17:39:11.287Z,12.01
2022-12-28T17:40:33.073Z,9.64
2022-12-28T17:41:56.275Z,9.16
2022-12-28T17:43:17.612Z,10.61
2022-12-28T17:44:38.836Z,9.57
2022-12-28T17:46:01.252Z,10.57
2022-12-28T17:47:23.193Z,10.80
2022-12-28T17:48:44.562Z,9.72
2022-12-28T17:50:07.626Z,11.71
2022-12-28T17:51:29.203Z,9.68
2022-12-28T17:52:50.628Z,17.95
2022-12-28T17:54:14.310Z,10.07
2022-12-28T17:55:36.076Z,13.13
2022-12-28T17:56:58.501Z,13.68
2022-12-28T17:58:19.588Z,17.64
2022-12-28T17:59:41.310Z,32.88
2022-12-28T18:01:04.271Z,20.77
2022-12-28T18:02:27.028Z,14.48
2022-12-28T18:03:49.136Z,10.92
2022-12-28T18:05:10.483Z,12.72
2022-12-28T18:06:32.365Z,12.81
2022-12-28T18:07:53.411Z,18.35
2022-12-28T18:09:16.202Z,14.46
2022-12-28T18:10:37.659Z,15.68
2022-12-28T18:12:00.342Z,17.79
2022-12-28T18:13:21.750Z,17.17
2022-12-28T18:14:42.857Z,20.02
2022-12-28T18:16:06.267Z,16.06
2022-12-28T18:18:49.141Z,11.59
2022-12-28T18:20:11.318Z,19.57
2022-12-28T18:21:32.516Z,10.79
2022-12-28T18:22:53.954Z,11.38
2022-12-28T18:24:15.003Z,10.86
2022-12-28T18:25:37.563Z,10.15
2022-12-28T18:26:59.018Z,9.79
2022-12-28T18:28:20.391Z,9.64
2022-12-28T18:29:43.468Z,11.49
2022-12-28T18:32:26.031Z,10.57
2022-12-28T18:33:47.111Z,10.15
2022-12-28T18:35:09.111Z,8.39
2022-12-28T18:36:31.181Z,10.65
2022-12-28T18:37:52.345Z,9.31
2022-12-28T18:39:13.296Z,11.08
2022-12-28T18:40:37.405Z,9.67
2022-12-28T18:41:58.613Z,9.10
2022-12-28T18:43:20.689Z,10.40
2022-12-28T18:44:43.287Z,10.94
2022-12-28T18:46:05.103Z,10.24
2022-12-28T18:47:27.798Z,7.03
2022-12-28T18:48:48.976Z,9.54
2022-12-28T18:50:10.614Z,11.57
2022-12-28T18:51:31.651Z,10.11
2022-12-28T18:52:52.880Z,10.08
2022-12-28T18:54:13.915Z,10.40
2022-12-28T18:55:35.384Z,10.69
2022-12-28T18:56:56.693Z,10.41
2022-12-28T18:58:17.948Z,8.91
2022-12-28T18:59:39.251Z,8.77
2022-12-28T19:01:06.640Z,7.12
2022-12-28T19:02:29.284Z,8.13
2022-12-28T19:05:05.652Z,6.43
2022-12-28T19:06:27.245Z,8.74
2022-12-28T19:07:49.705Z,8.01
2022-12-28T19:09:11.234Z,8.81
2022-12-28T19:10:32.859Z,9.45
2022-12-28T19:11:54.660Z,8.28
2022-12-28T19:13:15.791Z,9.27
2022-12-28T19:14:37.150Z,10.73
2022-12-28T19:15:58.721Z,9.05
2022-12-28T19:17:20.349Z,10.93
2022-12-28T19:18:42.918Z,8.64
2022-12-28T19:20:05.916Z,11.15
2022-12-28T19:21:29.850Z,13.37
2022-12-28T19:22:51.246Z,14.10
2022-12-28T19:24:14.627Z,11.66
2022-12-28T19:26:59.587Z,11.02
2022-12-28T19:28:20.751Z,10.12
2022-12-28T19:29:41.844Z,8.53
2022-12-28T19:31:05.393Z,8.76
2022-12-28T19:32:27.122Z,7.90
2022-12-28T19:33:48.631Z,8.39
2022-12-28T19:35:16.777Z,8.66
2022-12-28T19:36:38.343Z,8.62
2022-12-28T19:38:00.596Z,9.61
2022-12-28T19:39:21.920Z,7.53
2022-12-28T19:40:43.264Z,8.49
2022-12-28T19:42:04.830Z,7.91
2022-12-28T19:43:26.210Z,8.09
2022-12-28T19:44:47.337Z,9.19
2022-12-28T19:46:14.396Z,8.52
2022-12-28T19:47:37.840Z,9.86
2022-12-28T19:49:00.674Z,14.49
2022-12-28T19:50:22.594Z,12.90
2022-12-28T19:51:44.013Z,16.06
2022-12-28T19:53:05.230Z,15.17
2022-12-28T19:54:26.503Z,22.31
2022-12-28T19:55:49.481Z,16.71
2022-12-28T19:57:11.674Z,16.87
2022-12-28T19:58:33.384Z,12.71
2022-12-28T19:59:55.926Z,12.09
2022-12-28T20:01:19.803Z,11.89
2022-12-28T20:02:41.375Z,11.06
2022-12-28T20:04:08.800Z,10.54
2022-12-28T20:05:26.408Z,11.55
2022-12-28T20:06:49.327Z,11.03